createdAt,value
2023-04-28T00:10:29.849Z,9.27
2023-04-28T00:40:32.124Z,9.76
2023-04-28T01:10:34.479Z,10.25
2023-04-28T01:40:36.907Z,11.08
2023-04-28T02:10:39.227Z,10.47
2023-04-28T02:40:44.262Z,9.59
2023-04-28T03:10:46.595Z,10.21
2023-04-28T03:55:33.718Z,12.24
2023-04-28T04:25:38.764Z,13.71
2023-04-28T04:55:41.016Z,15.28
2023-04-28T05:25:41.189Z,16.53
2023-04-28T05:55:44.603Z,21.42
2023-04-28T06:25:46.974Z,20.23
2023-04-28T06:55:49.652Z,26.11
2023-04-28T07:25:52.018Z,26.36
2023-04-28T07:55:58.884Z,26.35
2023-04-28T08:26:01.316Z,22.69
2023-04-28T08:56:01.472Z,20.55
2023-04-28T09:26:04.627Z,17.37
2023-04-28T10:12:45.738Z,17.58
2023-04-28T10:42:49.043Z,17.44
2023-04-28T11:12:51.094Z,15.42
2023-04-28T11:48:33.825Z,13.26
2023-04-28T12:18:36.985Z,12.44
2023-04-28T12:48:39.796Z,10.96
2023-04-28T13:18:42.435Z,11.16
2023-04-28T13:48:44.873Z,11.00
2023-04-28T14:18:47.783Z,11.72
2023-04-28T15:08:11.102Z,11.54
2023-04-28T15:38:11.372Z,11.09
2023-04-28T16:08:13.747Z,10.67
2023-04-28T16:38:15.883Z,12.21
2023-04-28T17:08:18.536Z,10.66
2023-04-28T17:38:21.718Z,9.14
2023-04-28T18:08:21.943Z,11.12
2023-04-28T18:38:26.595Z,11.91
2023-04-28T19:08:29.011Z,10.41
2023-04-28T19:38:29.209Z,18.55
2023-04-28T20:08:29.362Z,29.03
2023-04-28T20:38:33.242Z,18.62
2023-04-28T21:58:39.119Z,59.11
2023-04-28T22:28:43.600Z,56.80
2023-04-28T22:58:46.091Z,56.80
2023-04-28T23:28:48.743Z,164.30
2023-04-28T23:58:53.249Z,66.28
